createdAt,value
2022-12-16T00:02:15.450Z,50.10
2022-12-16T00:07:21.008Z,57.70
2022-12-16T00:12:26.549Z,47.70
2022-12-16T00:17:32.019Z,45.23
2022-12-16T00:22:37.497Z,51.17
2022-12-16T00:27:42.967Z,60.43
2022-12-16T00:32:48.367Z,58.27
2022-12-16T00:37:54.003Z,61.33
2022-12-16T00:43:00.279Z,56.13
2022-12-16T00:48:06.511Z,50.53
2022-12-16T00:53:11.903Z,48.07
2022-12-16T00:58:17.567Z,40.67
2022-12-16T01:03:23.251Z,45.70
2022-12-16T01:08:28.956Z,46.77
2022-12-16T01:13:35.323Z,51.77
2022-12-16T01:18:41.306Z,56.40
2022-12-16T01:23:48.276Z,58.83
2022-12-16T01:28:54.090Z,49.50
2022-12-16T01:34:00.738Z,54.43
2022-12-16T01:39:06.136Z,48.83
2022-12-16T01:44:17.717Z,51.57
2022-12-16T01:49:28.721Z,45.90
2022-12-16T01:54:37.172Z,47.53
2022-12-16T01:59:45.656Z,55.73
2022-12-16T02:05:09.821Z,50.53
2022-12-16T02:10:15.422Z,48.23
2022-12-16T02:15:40.548Z,52.03
2022-12-16T02:21:09.865Z,45.70
2022-12-16T02:26:21.124Z,46.87
2022-12-16T02:31:35.688Z,45.90
2022-12-16T02:36:47.011Z,46.13
2022-12-16T02:41:55.560Z,44.07
2022-12-16T02:47:01.036Z,47.40
2022-12-16T02:52:07.057Z,44.93
2022-12-16T02:57:49.268Z,42.17
2022-12-16T03:03:10.187Z,47.63
2022-12-16T03:08:27.535Z,48.63
2022-12-16T03:13:35.979Z,47.37
2022-12-16T03:18:44.585Z,49.83
2022-12-16T03:23:53.078Z,43.97
2022-12-16T03:29:10.594Z,46.33
2022-12-16T03:34:31.273Z,43.90
2022-12-16T03:39:39.623Z,45.77
2022-12-16T03:44:46.856Z,42.80
2022-12-16T03:49:52.613Z,47.03
2022-12-16T03:54:58.015Z,43.80
2022-12-16T04:00:03.958Z,39.50
2022-12-16T04:05:11.989Z,43.17
2022-12-16T04:10:17.521Z,39.27
2022-12-16T04:15:41.462Z,49.23
2022-12-16T04:21:08.568Z,49.23
2022-12-16T04:26:14.801Z,49.70
2022-12-16T04:31:20.506Z,50.43
2022-12-16T04:36:43.982Z,46.53
2022-12-16T04:42:09.263Z,48.23
2022-12-16T04:47:32.505Z,46.30
2022-12-16T04:52:55.754Z,48.00
2022-12-16T04:58:21.298Z,49.60
2022-12-16T05:03:45.169Z,48.07
2022-12-16T05:09:08.946Z,46.63
2022-12-16T05:14:32.101Z,49.97
2022-12-16T05:19:55.648Z,50.23
2022-12-16T05:25:19.110Z,47.20
2022-12-16T05:30:42.769Z,47.97
2022-12-16T05:36:05.967Z,44.37
2022-12-16T05:41:29.596Z,47.90
2022-12-16T05:46:53.249Z,50.77
2022-12-16T05:52:17.024Z,48.33
2022-12-16T05:57:40.687Z,51.50
2022-12-16T06:03:04.346Z,51.20
2022-12-16T06:08:28.242Z,59.60
2022-12-16T06:13:51.597Z,52.80
2022-12-16T06:19:15.247Z,49.50
2022-12-16T06:24:38.398Z,48.20
2022-12-16T06:30:01.901Z,52.90
2022-12-16T06:35:25.856Z,47.83
2022-12-16T06:40:49.241Z,60.70
2022-12-16T06:46:12.487Z,57.87
2022-12-16T06:51:35.901Z,63.57
2022-12-16T06:56:59.598Z,59.10
2022-12-16T07:02:22.968Z,50.73
2022-12-16T07:07:39.409Z,51.70
2022-12-16T07:13:02.925Z,50.23
2022-12-16T07:18:26.183Z,54.17
2022-12-16T07:23:49.849Z,52.27
2022-12-16T07:29:14.053Z,54.53
2022-12-16T07:34:41.442Z,52.93
2022-12-16T07:40:02.881Z,54.43
2022-12-16T07:45:27.252Z,54.50
2022-12-16T07:50:50.878Z,52.77
2022-12-16T07:56:14.206Z,53.77
2022-12-16T08:01:38.000Z,51.13
2022-12-16T08:07:01.226Z,50.00
2022-12-16T08:12:24.685Z,49.83
2022-12-16T08:17:48.030Z,56.90
2022-12-16T08:23:11.388Z,53.60
2022-12-16T08:28:34.857Z,54.73
2022-12-16T08:33:57.845Z,55.90
2022-12-16T08:39:21.381Z,58.17
2022-12-16T08:44:44.569Z,57.07
2022-12-16T08:50:08.551Z,50.80
2022-12-16T08:55:32.029Z,55.33
2022-12-16T09:00:51.459Z,55.93
2022-12-16T09:06:18.947Z,55.73
2022-12-16T09:11:42.286Z,47.30
2022-12-16T09:17:07.374Z,51.90
2022-12-16T09:22:30.626Z,49.97
2022-12-16T09:27:53.831Z,52.40
2022-12-16T09:33:19.410Z,47.90
2022-12-16T09:38:42.764Z,49.17
2022-12-16T09:44:15.198Z,49.67
2022-12-16T09:49:44.776Z,45.60
2022-12-16T09:55:08.563Z,45.43
2022-12-16T10:00:37.908Z,50.70
2022-12-16T10:06:15.942Z,58.00
2022-12-16T10:11:42.224Z,63.80
2022-12-16T10:17:11.550Z,59.47
2022-12-16T10:22:43.830Z,59.10
2022-12-16T10:28:09.125Z,61.57
2022-12-16T10:33:35.370Z,66.87
2022-12-16T10:39:05.184Z,66.40
2022-12-16T10:44:40.593Z,64.27
2022-12-16T10:50:04.171Z,65.13
2022-12-16T10:55:33.572Z,62.73
2022-12-16T11:01:08.770Z,63.70
2022-12-16T11:06:37.848Z,61.90
2022-12-16T11:12:01.474Z,65.70
2022-12-16T11:17:39.411Z,61.07
2022-12-16T11:23:02.610Z,62.93
2022-12-16T11:28:31.304Z,58.50
2022-12-16T11:33:55.197Z,58.33
2022-12-16T11:39:21.339Z,58.97
2022-12-16T11:44:50.731Z,57.67
2022-12-16T11:50:17.458Z,61.03
2022-12-16T12:01:20.740Z,62.33
2022-12-16T12:07:11.376Z,64.23
2022-12-16T12:12:46.610Z,60.27
2022-12-16T12:18:41.611Z,59.03
2022-12-16T12:24:17.021Z,71.60
2022-12-16T12:29:55.186Z,72.33
2022-12-16T12:35:42.109Z,65.07
2022-12-16T12:41:11.110Z,67.93
2022-12-16T12:46:58.300Z,73.23
2022-12-16T12:52:39.339Z,72.77
2022-12-16T12:58:05.601Z,65.93
2022-12-16T13:03:57.691Z,73.57
2022-12-16T13:09:22.085Z,67.60
2022-12-16T13:14:54.196Z,72.73
2022-12-16T13:20:19.114Z,72.90
2022-12-16T13:26:03.731Z,76.30
2022-12-16T13:31:28.902Z,69.10
2022-12-16T13:36:55.812Z,69.93
2022-12-16T13:42:20.002Z,64.37
2022-12-16T13:48:01.281Z,72.87
2022-12-16T13:53:20.089Z,77.80
2022-12-16T13:58:48.980Z,73.70
2022-12-16T14:04:13.764Z,81.77
2022-12-16T14:10:03.299Z,83.57
2022-12-16T14:15:29.887Z,87.43
2022-12-16T14:20:55.969Z,89.00
2022-12-16T14:26:20.999Z,112.23
2022-12-16T14:31:53.151Z,116.83
2022-12-16T14:37:19.311Z,138.03
2022-12-16T14:42:43.267Z,132.67
2022-12-16T14:48:06.826Z,117.30
2022-12-16T14:53:41.489Z,99.73
2022-12-16T14:59:00.582Z,91.47
2022-12-16T15:04:27.130Z,78.03
2022-12-16T15:09:56.527Z,74.10
2022-12-16T15:15:22.238Z,64.80
2022-12-16T15:20:48.545Z,70.43
2022-12-16T15:26:14.920Z,67.67
2022-12-16T15:31:44.271Z,68.73
2022-12-16T15:37:07.899Z,62.40
2022-12-16T15:42:40.672Z,72.73
2022-12-16T15:48:06.938Z,71.07
2022-12-16T15:53:51.629Z,67.67
2022-12-16T15:59:18.160Z,69.27
2022-12-16T16:04:48.855Z,64.53
2022-12-16T16:10:14.951Z,67.53
2022-12-16T16:15:38.457Z,66.07
2022-12-16T16:21:02.318Z,65.40
2022-12-16T16:26:27.015Z,63.07
2022-12-16T16:31:50.389Z,65.10
2022-12-16T16:37:16.622Z,59.17
2022-12-16T16:42:40.930Z,60.90
2022-12-16T16:48:03.025Z,63.60
2022-12-16T16:53:29.601Z,61.80
2022-12-16T16:58:54.223Z,64.73
2022-12-16T17:04:18.332Z,69.67
2022-12-16T17:09:41.920Z,71.37
2022-12-16T17:15:05.456Z,64.87
2022-12-16T17:20:34.062Z,70.77
2022-12-16T17:25:57.490Z,69.03
2022-12-16T17:31:20.951Z,67.03
2022-12-16T17:36:44.776Z,66.33
2022-12-16T17:42:09.688Z,61.07
2022-12-16T17:53:14.033Z,62.03
2022-12-16T17:58:37.138Z,60.07
2022-12-16T18:04:01.501Z,64.87
2022-12-16T18:09:25.072Z,60.20
2022-12-16T18:14:48.448Z,62.07
2022-12-16T18:20:11.629Z,62.43
2022-12-16T18:25:35.483Z,62.23
2022-12-16T18:30:59.181Z,60.97
2022-12-16T18:36:22.829Z,67.90
2022-12-16T18:41:46.376Z,59.40
2022-12-16T18:47:10.023Z,66.50
2022-12-16T18:52:33.206Z,56.57
2022-12-16T18:57:56.823Z,63.90
2022-12-16T19:03:20.281Z,65.07
2022-12-16T19:08:30.005Z,68.77
2022-12-16T19:13:53.536Z,68.87
2022-12-16T19:19:20.195Z,69.30
2022-12-16T19:24:42.514Z,80.57
2022-12-16T19:30:06.236Z,65.30
2022-12-16T19:35:29.697Z,67.53
2022-12-16T19:40:53.750Z,56.90
2022-12-16T19:46:17.633Z,69.60
2022-12-16T19:51:41.417Z,64.80
2022-12-16T19:57:04.705Z,64.60
2022-12-16T20:02:31.347Z,73.67
2022-12-16T20:07:56.285Z,62.77
2022-12-16T20:13:24.957Z,61.50
2022-12-16T20:18:45.404Z,62.63
2022-12-16T20:24:08.848Z,63.63
2022-12-16T20:29:32.815Z,61.17
2022-12-16T20:34:56.510Z,59.33
2022-12-16T20:40:19.939Z,70.32
2022-12-16T20:45:43.361Z,61.83
2022-12-16T20:51:18.563Z,57.90
2022-12-16T20:56:40.928Z,62.73
2022-12-16T21:07:29.457Z,59.70
2022-12-16T21:12:52.727Z,60.70
2022-12-16T21:18:19.357Z,62.53
2022-12-16T21:23:43.181Z,64.50
2022-12-16T21:29:07.345Z,69.07
2022-12-16T21:34:31.063Z,62.77
2022-12-16T21:39:54.670Z,62.53
2022-12-16T21:45:18.268Z,66.00
2022-12-16T21:50:41.660Z,63.43
2022-12-16T21:56:12.912Z,63.67
2022-12-16T22:01:36.562Z,66.17
2022-12-16T22:06:59.850Z,64.17
2022-12-16T22:12:23.481Z,66.10
2022-12-16T22:17:46.951Z,61.80
2022-12-16T22:23:10.218Z,56.07
2022-12-16T22:28:33.513Z,58.67
2022-12-16T22:33:57.402Z,54.63
2022-12-16T22:39:20.536Z,66.53
2022-12-16T22:44:44.068Z,59.50
2022-12-16T22:50:07.698Z,62.03
2022-12-16T22:55:31.184Z,55.87
2022-12-16T23:00:56.397Z,55.93
2022-12-16T23:06:19.929Z,57.10
2022-12-16T23:11:52.789Z,56.83
2022-12-16T23:17:17.829Z,55.87
2022-12-16T23:22:41.373Z,58.90
2022-12-16T23:28:05.093Z,54.23
2022-12-16T23:33:28.649Z,52.70
2022-12-16T23:38:52.306Z,51.57
2022-12-16T23:44:16.560Z,50.00
2022-12-16T23:49:39.844Z,56.73
2022-12-16T23:55:03.289Z,48.93
